Time;durP1;ratioP1;P1;durP2;ratioP2;P2;SDS_P1;SDS_P2;PMS_P1;PMS_P2;Temp;Humidity;BMP_temperature;BMP_pressure;BME280_temperature;BME280_humidity;BME280_pressure;Samples;Min_cycle;Max_cycle;Signal;HPM_P1;HPM_P2
2022/10/25 00:02:22;;;;;;;40.08;20.15;;;384.90;2329.60;;;;;;5001253;28;20034;-85
2022/10/25 00:04:48;;;;;;;40.53;20.98;;;384.80;2329.60;;;;;;5007586;28;20026;-84
2022/10/25 00:07:14;;;;;;;44.90;21.05;;;384.90;2329.60;;;;;;4997928;28;20459;-79
2022/10/25 00:09:40;;;;;;;44.70;20.98;;;384.90;2329.60;;;;;;4995120;28;20515;-83
2022/10/25 00:12:06;;;;;;;42.25;20.25;;;409.60;2355.20;;;;;;4996885;28;20065;-79
2022/10/25 00:14:32;;;;;;;37.58;19.88;;;384.90;2329.60;;;;;;5002036;28;20455;-78
2022/10/25 00:16:58;;;;;;;44.05;20.63;;;409.60;2355.20;;;;;;4996514;28;20443;-78
2022/10/25 00:19:23;;;;;;;37.08;20.50;;;409.60;2355.20;;;;;;4994850;28;20030;-80
2022/10/25 00:21:49;;;;;;;48.97;23.23;;;409.60;2355.20;;;;;;5001444;28;20038;-78
2022/10/25 00:24:15;;;;;;;51.47;25.75;;;409.70;2355.20;;;;;;5001913;28;20031;-78
2022/10/25 00:26:41;;;;;;;42.03;21.27;;;409.80;2355.20;;;;;;5008889;28;20543;-78
2022/10/25 00:29:08;;;;;;;53.95;22.58;;;409.90;2355.20;;;;;;4997218;28;20034;-78
2022/10/25 00:31:35;;;;;;;40.10;22.55;;;410.00;2355.20;;;;;;4991094;28;20058;-78
2022/10/25 00:34:01;;;;;;;39.00;19.40;;;410.00;2355.20;;;;;;5001457;28;20089;-78
2022/10/25 00:36:27;;;;;;;40.58;20.67;;;409.90;2355.20;;;;;;4998860;28;20034;-80
2022/10/25 00:38:55;;;;;;;41.72;20.33;;;409.90;2355.20;;;;;;4996985;28;20033;-79
2022/10/25 00:41:23;;;;;;;49.55;22.35;;;409.70;2355.20;;;;;;5004448;28;20033;-79
2022/10/25 00:43:52;;;;;;;43.17;22.10;;;409.60;2355.20;;;;;;5008876;28;20030;-80
2022/10/25 00:46:18;;;;;;;43.13;22.85;;;409.70;2355.20;;;;;;5008063;28;20486;-78
2022/10/25 00:48:53;;;;;;;53.05;24.17;;;409.70;2355.20;;;;;;4998892;28;20178;-78
2022/10/25 00:51:20;;;;;;;50.30;23.80;;;409.80;2355.20;;;;;;4996824;28;20061;-79
2022/10/25 00:53:46;;;;;;;41.03;22.08;;;409.80;2355.20;;;;;;5004088;28;20164;-79
2022/10/25 00:56:18;;;;;;;49.78;24.48;;;409.80;2355.20;;;;;;5004842;28;20069;-80
2022/10/25 00:58:48;;;;;;;48.97;22.75;;;409.80;2355.20;;;;;;5009547;28;20034;-78
2022/10/25 01:01:14;;;;;;;42.92;20.60;;;409.70;2355.20;;;;;;4999261;28;20031;-79
2022/10/25 01:03:41;;;;;;;42.47;20.30;;;409.70;2355.20;;;;;;5024043;28;20113;-81
2022/10/25 01:06:13;;;;;;;41.92;21.48;;;384.90;2329.60;;;;;;5008175;28;20037;-79
2022/10/25 01:08:41;;;;;;;40.13;22.10;;;409.60;2355.20;;;;;;5012125;28;20503;-79
2022/10/25 01:11:07;;;;;;;40.67;20.98;;;409.60;2355.20;;;;;;4997718;28;20121;-80
2022/10/25 01:13:34;;;;;;;39.65;21.80;;;409.70;2355.20;;;;;;5009460;28;20396;-80
2022/10/25 01:16:10;;;;;;;44.53;21.90;;;409.70;2355.20;;;;;;4997874;28;20042;-78
2022/10/25 01:18:36;;;;;;;42.75;19.92;;;409.70;2355.20;;;;;;4998516;28;20085;-79
2022/10/25 01:21:40;;;;;;;44.35;20.85;;;384.50;2329.60;;;;;;5004451;28;20049;-78
2022/10/25 01:24:21;;;;;;;41.83;22.38;;;384.90;2329.60;;;;;;4997133;28;20093;-84
2022/10/25 01:27:08;;;;;;;40.30;20.77;;;;;;;;;;5010634;28;20376;-79
2022/10/25 01:29:55;;;;;;;42.80;20.42;;;384.60;2329.60;;;;;;5004725;28;20543;-78
2022/10/25 01:32:21;;;;;;;;;;;384.60;2329.60;;;;;;4996810;28;20026;-78
2022/10/25 01:35:02;;;;;;;44.50;20.43;;;384.70;2329.60;;;;;;5020293;28;19924;-79
2022/10/25 01:38:13;;;;;;;41.90;22.33;;;384.70;2329.60;;;;;;5003340;28;20488;-79
2022/10/25 01:40:41;;;;;;;32.97;20.02;;;384.70;2329.60;;;;;;4997346;28;20034;-78
2022/10/25 01:43:19;;;;;;;49.47;22.40;;;384.70;2329.60;;;;;;5001999;28;20435;-80
2022/10/25 01:45:56;;;;;;;40.00;21.45;;;384.70;2329.60;;;;;;5004453;28;20038;-79
2022/10/25 01:48:30;;;;;;;42.45;22.63;;;384.70;2329.60;;;;;;5001820;28;20440;-79
2022/10/25 01:51:11;;;;;;;46.58;23.10;;;384.70;2329.60;;;;;;5003527;28;20566;-78
2022/10/25 01:53:57;;;;;;;41.72;23.80;;;384.70;2329.60;;;;;;5004325;28;20077;-79
2022/10/25 01:56:38;;;;;;;54.60;26.92;;;384.70;2329.60;;;;;;4998272;28;20103;-79
2022/10/25 01:59:19;;;;;;;58.38;27.40;;;384.70;2329.60;;;;;;4999048;28;20037;-80
2022/10/25 02:02:05;;;;;;;47.70;26.65;;;384.80;2329.60;;;;;;4997018;28;20026;-79
2022/10/25 02:04:43;;;;;;;68.45;26.38;;;384.90;2329.60;;;;;;4996460;28;20432;-79
2022/10/25 02:07:30;;;;;;;46.63;25.27;;;409.60;2355.20;;;;;;5001831;28;20069;-79
2022/10/25 02:10:12;;;;;;;49.80;25.50;;;384.90;2329.60;;;;;;4996640;28;20039;-80
2022/10/25 02:12:42;;;;;;;48.20;24.17;;;384.90;2329.60;;;;;;5012494;28;20499;-79
2022/10/25 02:15:14;;;;;;;49.97;24.88;;;384.90;2329.60;;;;;;5008481;28;20117;-79
2022/10/25 02:17:48;;;;;;;38.63;22.73;;;409.60;2355.20;;;;;;5004280;28;20030;-78
2022/10/25 02:20:17;;;;;;;40.53;23.13;;;384.90;2329.60;;;;;;5001784;28;20580;-79
2022/10/25 02:22:45;;;;;;;42.70;23.38;;;384.90;2329.60;;;;;;5006225;28;20198;-79
2022/10/25 02:25:12;;;;;;;39.15;21.92;;;384.90;2329.60;;;;;;5002385;28;20065;-84
2022/10/25 02:27:39;;;;;;;42.40;21.52;;;384.90;2329.60;;;;;;5001047;28;20574;-78
2022/10/25 02:30:06;;;;;;;37.55;20.70;;;384.90;2329.60;;;;;;5002235;28;20073;-79
2022/10/25 02:32:32;;;;;;;40.88;21.67;;;384.90;2329.60;;;;;;5005019;28;20026;-80
2022/10/25 02:34:58;;;;;;;41.70;22.00;;;384.80;2329.60;;;;;;4998030;28;20046;-79
2022/10/25 02:37:24;;;;;;;49.20;22.98;;;384.70;2329.60;;;;;;5001007;28;20073;-79
2022/10/25 02:39:50;;;;;;;39.78;21.33;;;384.70;2329.60;;;;;;5000224;28;20386;-79
2022/10/25 02:42:16;;;;;;;46.88;21.27;;;384.60;2329.60;;;;;;4994913;28;20038;-79
2022/10/25 02:44:42;;;;;;;39.75;20.38;;;384.60;2329.60;;;;;;5003232;28;20033;-79
2022/10/25 02:47:07;;;;;;;39.45;20.08;;;384.50;2329.60;;;;;;4997993;28;20038;-79
2022/10/25 02:49:33;;;;;;;39.38;20.13;;;384.40;2329.60;;;;;;5001590;28;20038;-79
2022/10/25 02:51:59;;;;;;;39.70;21.73;;;384.30;2329.60;;;;;;5000143;28;20093;-79
2022/10/25 02:54:25;;;;;;;36.65;20.17;;;384.30;2329.60;;;;;;4998205;28;20037;-80
2022/10/25 02:56:51;;;;;;;43.08;20.42;;;384.20;2329.60;;;;;;5003231;28;20041;-83
2022/10/25 02:59:18;;;;;;;31.63;19.55;;;384.20;2329.60;;;;;;5000787;28;20038;-82
2022/10/25 03:01:44;;;;;;;38.72;21.10;;;384.30;2329.60;;;;;;5010155;28;20038;-82
2022/10/25 03:04:10;;;;;;;40.30;22.35;;;384.20;2329.60;;;;;;5012454;28;20034;-83
2022/10/25 03:06:36;;;;;;;47.40;22.80;;;384.30;2329.60;;;;;;5006932;28;20542;-79
2022/10/25 03:09:03;;;;;;;44.92;24.42;;;384.20;2329.60;;;;;;5003418;28;20061;-84
2022/10/25 03:11:29;;;;;;;43.40;24.70;;;384.30;2329.60;;;;;;5000916;28;20034;-85
2022/10/25 03:13:54;;;;;;;49.17;23.90;;;384.30;2329.60;;;;;;5006801;28;20100;-79
2022/10/25 03:16:20;;;;;;;50.10;24.73;;;384.40;2329.60;;;;;;5010526;28;20052;-80
2022/10/25 03:18:46;;;;;;;44.17;23.85;;;384.50;2329.60;;;;;;5005669;28;20404;-79
2022/10/25 03:21:11;;;;;;;44.47;24.35;;;384.60;2329.60;;;;;;4999895;28;20037;-78
2022/10/25 03:23:37;;;;;;;47.20;24.77;;;384.70;2329.60;;;;;;4999842;28;20037;-79
2022/10/25 03:26:03;;;;;;;43.28;23.17;;;384.70;2329.60;;;;;;5018875;28;20026;-79
2022/10/25 03:28:30;;;;;;;51.10;24.83;;;384.70;2329.60;;;;;;5003764;28;20034;-79
2022/10/25 03:30:58;;;;;;;45.22;24.75;;;384.60;2329.60;;;;;;4999672;28;20462;-83
2022/10/25 03:33:24;;;;;;;50.75;27.02;;;384.60;2329.60;;;;;;4997352;28;20043;-78
2022/10/25 03:35:51;;;;;;;55.97;26.70;;;384.60;2329.60;;;;;;4996596;28;20487;-79
2022/10/25 03:38:17;;;;;;;51.42;26.27;;;384.60;2329.60;;;;;;4999711;28;20062;-80
2022/10/25 03:40:43;;;;;;;52.75;27.88;;;384.50;2329.60;;;;;;4999908;28;20066;-79
2022/10/25 03:43:09;;;;;;;43.60;26.17;;;384.60;2329.60;;;;;;5003537;28;20057;-85
2022/10/25 03:45:35;;;;;;;50.35;25.85;;;384.60;2329.60;;;;;;4999699;28;20499;-80
2022/10/25 03:48:00;;;;;;;44.72;25.50;;;384.60;2329.60;;;;;;5001744;28;20026;-79
2022/10/25 03:50:26;;;;;;;39.17;24.33;;;384.60;2329.60;;;;;;4999435;28;20054;-78
2022/10/25 03:52:52;;;;;;;53.60;25.15;;;384.70;2329.60;;;;;;5001730;28;20030;-80
2022/10/25 03:55:18;;;;;;;51.00;26.00;;;384.70;2329.60;;;;;;5003716;28;20436;-79
2022/10/25 03:57:43;;;;;;;51.63;25.55;;;384.70;2329.60;;;;;;5007293;28;20041;-80
2022/10/25 04:00:10;;;;;;;50.63;24.90;;;384.70;2329.60;;;;;;5002214;28;20030;-80
2022/10/25 04:02:36;;;;;;;45.20;24.40;;;384.70;2329.60;;;;;;4996418;28;20110;-80
2022/10/25 04:05:01;;;;;;;56.00;25.02;;;384.70;2329.60;;;;;;4998116;28;20569;-79
2022/10/25 04:07:27;;;;;;;42.90;23.80;;;384.70;2329.60;;;;;;5002010;28;20030;-80
2022/10/25 04:09:53;;;;;;;51.40;24.42;;;384.80;2329.60;;;;;;5005421;28;20036;-80
2022/10/25 04:12:18;;;;;;;36.00;22.83;;;384.90;2329.60;;;;;;5005668;28;20541;-80
2022/10/25 04:14:44;;;;;;;42.50;23.67;;;384.90;2329.60;;;;;;5008067;28;20045;-79
2022/10/25 04:17:10;;;;;;;51.03;20.80;;;409.70;2355.20;;;;;;5002946;28;20498;-80
2022/10/25 04:19:36;;;;;;;42.92;21.13;;;409.70;2355.20;;;;;;5002673;28;20124;-79
2022/10/25 04:22:02;;;;;;;41.40;22.10;;;409.70;2355.20;;;;;;5011122;28;20038;-79
2022/10/25 04:24:28;;;;;;;37.45;21.50;;;410.00;2355.20;;;;;;5005084;28;20037;-78
2022/10/25 04:26:54;;;;;;;41.65;21.48;;;384.90;2329.60;;;;;;4997747;28;20403;-84
2022/10/25 04:29:20;;;;;;;39.03;20.98;;;409.60;2355.20;;;;;;4996941;28;20117;-79
2022/10/25 04:31:45;;;;;;;42.17;20.83;;;409.60;2355.20;;;;;;5002303;28;20034;-79
2022/10/25 04:34:11;;;;;;;45.03;20.83;;;409.70;2355.20;;;;;;4994742;28;20038;-79
2022/10/25 04:36:38;;;;;;;45.28;20.27;;;409.70;2355.20;;;;;;5001703;28;20034;-79
2022/10/25 04:39:04;;;;;;;33.53;19.17;;;409.70;2355.20;;;;;;4993669;28;20042;-79
2022/10/25 04:41:30;;;;;;;44.55;20.95;;;409.70;2355.20;;;;;;5008541;28;20030;-80
2022/10/25 04:43:56;;;;;;;35.70;20.98;;;409.70;2355.20;;;;;;5008119;28;20061;-79
2022/10/25 04:46:22;;;;;;;39.10;19.52;;;409.70;2355.20;;;;;;4992312;28;20057;-79
2022/10/25 04:48:47;;;;;;;29.42;18.27;;;409.70;2355.20;;;;;;5002918;28;20436;-79
2022/10/25 04:51:14;;;;;;;38.50;20.42;;;409.80;2355.20;;;;;;4999477;28;20051;-80
2022/10/25 04:53:39;;;;;;;36.03;19.80;;;409.60;2355.20;;;;;;5000894;28;20038;-79
2022/10/25 04:56:11;;;;;;;38.70;21.70;;;409.70;2355.20;;;;;;4994505;28;20425;-79
2022/10/25 04:58:37;;;;;;;40.45;21.20;;;409.70;2355.20;;;;;;5008063;28;20034;-79
2022/10/25 05:01:09;;;;;;;32.92;20.90;;;409.80;2355.20;;;;;;5000346;28;20045;-79
2022/10/25 05:03:35;;;;;;;37.42;20.85;;;409.70;2355.20;;;;;;5007327;28;20026;-79
2022/10/25 05:06:12;;;;;;;34.90;22.77;;;409.70;2355.20;;;;;;4998109;28;20054;-80
2022/10/25 05:08:39;;;;;;;34.45;21.10;;;409.70;2355.20;;;;;;5005782;28;20110;-80
2022/10/25 05:11:06;;;;;;;38.47;20.10;;;409.70;2355.20;;;;;;4999712;28;20128;-79
2022/10/25 05:13:33;;;;;;;37.55;20.35;;;409.70;2355.20;;;;;;5004230;28;20036;-79
2022/10/25 05:16:00;;;;;;;40.03;21.65;;;409.70;2355.20;;;;;;5009408;28;20041;-82
2022/10/25 05:18:26;;;;;;;41.17;20.45;;;409.70;2355.20;;;;;;4998803;28;20107;-83
2022/10/25 05:20:53;;;;;;;39.25;21.17;;;384.90;2329.60;;;;;;5004746;28;20042;-83
2022/10/25 05:23:20;;;;;;;34.70;19.83;;;384.90;2329.60;;;;;;5001232;28;20034;-83
2022/10/25 05:25:46;;;;;;;43.78;21.38;;;384.90;2329.60;;;;;;5001644;28;20125;-84
2022/10/25 05:28:12;;;;;;;35.47;20.83;;;384.90;2329.60;;;;;;5005748;28;20065;-83
2022/10/25 05:30:42;;;;;;;31.13;19.85;;;384.80;2329.60;;;;;;5020348;28;20026;-84
2022/10/25 05:33:08;;;;;;;34.72;19.95;;;384.80;2329.60;;;;;;5004447;28;20045;-83
2022/10/25 05:35:33;;;;;;;36.25;20.90;;;384.70;2329.60;;;;;;5005670;28;20050;-88
2022/10/25 05:38:00;;;;;;;38.90;21.10;;;384.70;2329.60;;;;;;5007901;28;20073;-81
2022/10/25 05:40:26;;;;;;;36.08;21.45;;;384.80;2329.60;;;;;;5006858;28;20030;-81
2022/10/25 05:42:53;;;;;;;47.53;22.10;;;384.90;2329.60;;;;;;5003548;28;20500;-85
2022/10/25 05:45:18;;;;;;;36.30;19.23;;;384.90;2329.60;;;;;;4998351;28;20031;-83
2022/10/25 05:47:44;;;;;;;40.10;19.17;;;384.90;2329.60;;;;;;5008895;28;20033;-85
2022/10/25 05:50:10;;;;;;;31.13;17.60;;;384.90;2329.60;;;;;;5016464;28;20057;-84
2022/10/25 05:52:36;;;;;;;32.25;19.13;;;409.60;2355.20;;;;;;5033815;28;20045;-84
2022/10/25 05:55:02;;;;;;;31.95;19.02;;;409.70;2355.20;;;;;;5017804;28;20091;-82
2022/10/25 05:57:29;;;;;;;27.17;19.00;;;409.70;2355.20;;;;;;5029503;28;20455;-84
2022/10/25 05:59:55;;;;;;;30.98;19.40;;;409.70;2355.20;;;;;;4998193;28;20030;-83
2022/10/25 06:02:21;;;;;;;39.75;20.20;;;409.80;2355.20;;;;;;5014178;28;20514;-83
2022/10/25 06:04:46;;;;;;;35.75;19.67;;;409.70;2355.20;;;;;;5014258;28;20030;-83
2022/10/25 06:07:12;;;;;;;31.02;18.75;;;409.80;2355.20;;;;;;5014366;28;20030;-86
2022/10/25 06:09:38;;;;;;;32.45;18.88;;;409.80;2355.20;;;;;;5014602;28;20125;-84
2022/10/25 06:12:03;;;;;;;33.75;19.23;;;409.90;2355.20;;;;;;5027186;28;20112;-82
2022/10/25 06:14:29;;;;;;;31.35;19.48;;;410.00;2355.20;;;;;;5033605;28;20041;-84
2022/10/25 06:16:55;;;;;;;30.63;18.02;;;410.00;2355.20;;;;;;5020147;28;20034;-87
2022/10/25 06:19:20;;;;;;;32.67;20.13;;;410.00;2355.20;;;;;;5033486;28;20066;-84
2022/10/25 06:21:46;;;;;;;31.98;20.00;;;410.20;2355.20;;;;;;5022644;28;20192;-84
2022/10/25 06:24:12;;;;;;;38.03;20.20;;;410.20;2355.20;;;;;;5031530;28;20475;-82
2022/10/25 06:26:38;;;;;;;31.38;19.15;;;410.20;2355.20;;;;;;5033860;28;20041;-85
2022/10/25 06:29:04;;;;;;;36.90;18.75;;;410.20;2355.20;;;;;;4995799;28;20061;-85
2022/10/25 06:31:31;;;;;;;34.03;18.52;;;410.20;2355.20;;;;;;5002848;28;20038;-87
2022/10/25 06:34:01;;;;;;;38.00;20.15;;;410.30;2355.20;;;;;;4998226;28;20045;-81
2022/10/25 06:36:29;;;;;;;31.75;18.77;;;410.40;2355.20;;;;;;5013241;28;20045;-83
2022/10/25 06:38:55;;;;;;;45.83;26.38;;;410.40;2355.20;;;;;;5030136;28;20551;-80
2022/10/25 06:41:24;;;;;;;27.42;19.48;;;410.40;2355.20;;;;;;5031983;28;20120;-83
2022/10/25 06:43:50;;;;;;;31.65;17.10;;;410.50;2355.20;;;;;;5019420;28;20026;-84
2022/10/25 06:46:20;;;;;;;33.88;18.30;;;410.50;2355.20;;;;;;5016629;28;20435;-81
2022/10/25 06:48:46;;;;;;;34.35;18.80;;;410.50;2355.20;;;;;;5032782;28;20044;-80
2022/10/25 06:51:13;;;;;;;32.38;18.55;;;435.20;2355.20;;;;;;5032379;28;20050;-81
2022/10/25 06:53:39;;;;;;;26.20;17.88;;;435.30;2355.20;;;;;;5032774;28;20038;-85
2022/10/25 06:56:07;;;;;;;33.92;18.95;;;435.20;2355.20;;;;;;5016432;28;20044;-84
2022/10/25 06:58:34;;;;;;;32.80;18.70;;;435.20;2355.20;;;;;;5019495;28;20084;-82
2022/10/25 07:01:05;;;;;;;29.92;18.67;;;435.30;2355.20;;;;;;5018912;28;20064;-85
2022/10/25 07:03:34;;;;;;;28.25;17.85;;;435.30;2355.20;;;;;;5032764;28;20128;-85
2022/10/25 07:06:01;;;;;;;24.33;17.17;;;435.30;2355.20;;;;;;5016176;28;20030;-81
2022/10/25 07:08:27;;;;;;;29.52;17.27;;;435.30;2355.20;;;;;;5032303;28;20040;-80
2022/10/25 07:10:56;;;;;;;33.25;19.60;;;435.40;2355.20;;;;;;5032115;28;20029;-81
2022/10/25 07:13:23;;;;;;;34.90;17.88;;;435.40;2355.20;;;;;;5015877;28;20039;-83
2022/10/25 07:15:48;;;;;;;29.50;17.52;;;435.50;2355.20;;;;;;5031922;28;20041;-81
2022/10/25 07:18:14;;;;;;;32.03;16.58;;;435.50;2355.20;;;;;;5026286;28;20492;-83
2022/10/25 07:20:40;;;;;;;28.85;16.77;;;435.50;2355.20;;;;;;5012853;28;20526;-79
2022/10/25 07:23:06;;;;;;;28.25;17.08;;;435.60;2355.20;;;;;;5023870;28;20038;-84
2022/10/25 07:25:32;;;;;;;26.65;14.68;;;435.70;2355.20;;;;;;5003803;28;20403;-86
2022/10/25 07:27:58;;;;;;;26.60;15.88;;;435.80;2355.20;;;;;;5001292;28;20038;-81
2022/10/25 07:30:23;;;;;;;21.77;15.40;;;436.00;2355.20;;;;;;5008157;28;20039;-81
2022/10/25 07:32:49;;;;;;;26.60;15.82;;;436.00;2355.20;;;;;;5009187;28;20041;-80
2022/10/25 07:35:15;;;;;;;24.23;15.02;;;460.80;2380.80;;;;;;5000200;28;20081;-80
2022/10/25 07:37:41;;;;;;;21.52;14.60;;;460.90;2380.80;;;;;;5015936;28;20064;-83
2022/10/25 07:40:07;;;;;;;21.45;14.52;;;461.00;2380.80;;;;;;5027985;28;20651;-83
2022/10/25 07:42:32;;;;;;;21.95;13.60;;;461.10;2380.80;;;;;;5009671;28;20523;-84
2022/10/25 07:44:58;;;;;;;19.85;13.10;;;461.00;2380.80;;;;;;4995929;28;20065;-84
2022/10/25 07:47:24;;;;;;;23.42;14.60;;;460.90;2380.80;;;;;;5001987;28;20399;-80
2022/10/25 07:49:49;;;;;;;22.52;14.23;;;460.90;2380.80;;;;;;5005085;28;20037;-81
2022/10/25 07:52:15;;;;;;;24.67;14.55;;;460.90;2380.80;;;;;;5007461;28;20462;-83
2022/10/25 07:54:41;;;;;;;27.25;14.65;;;460.90;2380.80;;;;;;5000918;28;20538;-85
2022/10/25 07:57:06;;;;;;;22.20;14.40;;;460.90;2380.80;;;;;;4996451;28;20503;-84
2022/10/25 07:59:32;;;;;;;20.35;13.63;;;461.00;2380.80;;;;;;5000083;28;20026;-83
2022/10/25 08:01:58;;;;;;;20.45;13.25;;;461.00;2380.80;;;;;;4999980;28;20054;-83
2022/10/25 08:04:24;;;;;;;22.73;14.23;;;461.00;2380.80;;;;;;4999774;28;20484;-79
2022/10/25 08:06:49;;;;;;;21.35;13.48;;;461.00;2380.80;;;;;;5019518;28;20048;-85
2022/10/25 08:09:15;;;;;;;24.48;14.77;;;461.00;2380.80;;;;;;5025751;28;20038;-81
2022/10/25 08:11:41;;;;;;;23.05;14.23;;;460.90;2380.80;;;;;;5023828;28;20069;-82
2022/10/25 08:14:06;;;;;;;18.45;14.13;;;460.90;2380.80;;;;;;5030941;28;20045;-77
2022/10/25 08:16:32;;;;;;;22.30;13.88;;;460.90;2380.80;;;;;;5032264;28;20141;-82
2022/10/25 08:18:58;;;;;;;22.95;12.82;;;460.90;2380.80;;;;;;5031851;28;20056;-78
2022/10/25 08:21:24;;;;;;;19.75;13.40;;;460.90;2380.80;;;;;;5021043;28;20041;-81
2022/10/25 08:23:49;;;;;;;20.63;13.18;;;460.90;2380.80;;;;;;5002063;28;20117;-85
2022/10/25 08:26:15;;;;;;;21.88;12.65;;;460.90;2380.80;;;;;;5002964;28;20030;-81
2022/10/25 08:28:41;;;;;;;19.60;12.80;;;461.00;2380.80;;;;;;5003764;28;20042;-84
2022/10/25 08:31:07;;;;;;;19.27;12.23;;;461.10;2380.80;;;;;;4996062;28;20076;-80
2022/10/25 08:33:33;;;;;;;17.92;13.05;;;461.20;2380.80;;;;;;5006459;28;20038;-81
2022/10/25 08:36:00;;;;;;;21.90;12.13;;;461.10;2380.80;;;;;;5007629;28;20499;-81
2022/10/25 08:38:25;;;;;;;20.67;12.27;;;461.20;2380.80;;;;;;4995596;28;20030;-80
2022/10/25 08:40:57;;;;;;;21.23;12.57;;;461.20;2380.80;;;;;;5001715;28;20041;-81
2022/10/25 08:43:32;;;;;;;20.80;12.63;;;461.20;2380.80;;;;;;4997681;28;20492;-82
2022/10/25 08:46:09;;;;;;;19.48;12.32;;;461.30;2380.80;;;;;;4999717;28;20088;-82
2022/10/25 08:48:43;;;;;;;20.27;11.23;;;461.30;2380.80;;;;;;5015199;28;20450;-80
2022/10/25 08:51:30;;;;;;;17.00;11.18;;;461.40;2380.80;;;;;;4998045;28;20057;-81
2022/10/25 08:53:57;;;;;;;;;;;461.40;2380.80;;;;;;5008562;28;20041;-80
2022/10/25 08:56:23;;;;;;;;;;;461.40;2380.80;;;;;;5013742;28;19919;-79
2022/10/25 08:58:59;;;;;;;19.63;12.07;;;461.40;2380.80;;;;;;5020705;28;19941;-82
2022/10/25 09:01:50;;;;;;;24.60;12.30;;;461.40;2380.80;;;;;;5033199;28;20030;-79
2022/10/25 09:04:16;;;;;;;20.52;12.43;;;461.40;2380.80;;;;;;5035381;28;20029;-81
2022/10/25 09:07:02;;;;;;;17.20;11.25;;;461.70;2380.80;;;;;;5023794;28;20466;-79
2022/10/25 09:09:40;;;;;;;20.55;11.20;;;461.50;2380.80;;;;;;5033708;28;20025;-80
2022/10/25 09:12:44;;;;;;;23.48;10.98;;;461.50;2380.80;;;;;;5034574;28;20083;-79
2022/10/25 09:15:35;;;;;;;20.27;10.70;;;461.60;2380.80;;;;;;4939413;29;20039;-81
2022/10/25 09:18:09;;;;;;;16.85;11.00;;;461.70;2380.80;;;;;;4962567;28;20109;-82
2022/10/25 09:20:45;;;;;;;18.58;11.75;;;461.70;2380.80;;;;;;4974045;28;20123;-83
2022/10/25 09:23:10;;;;;;;;;;;461.70;2380.80;;;;;;4952799;29;20036;-81
2022/10/25 09:25:41;;;;;;;14.67;9.33;;;461.70;2380.80;;;;;;4967105;28;20013;-81
2022/10/25 09:28:23;;;;;;;15.98;10.52;;;486.40;2380.80;;;;;;4945524;29;20039;-81
2022/10/25 09:30:51;;;;;;;18.27;10.32;;;486.50;2380.80;;;;;;4952497;29;20039;-79
2022/10/25 09:33:22;;;;;;;16.30;10.82;;;486.50;2380.80;;;;;;4954414;29;20050;-80
2022/10/25 09:35:52;;;;;;;16.60;10.93;;;486.50;2380.80;;;;;;4951799;29;20055;-77
2022/10/25 09:38:33;;;;;;;18.35;10.40;;;486.70;2380.80;;;;;;4921299;28;20031;-76
2022/10/25 09:41:09;;;;;;;17.30;9.70;;;486.70;2380.80;;;;;;4973755;28;20039;-77
2022/10/25 09:43:39;;;;;;;;;;;486.60;2380.80;;;;;;4974355;28;20177;-76
2022/10/25 09:46:11;;;;;;;17.35;10.98;;;486.70;2380.80;;;;;;4957845;28;19956;-81
2022/10/25 09:48:49;;;;;;;17.75;10.20;;;486.80;2380.80;;;;;;4973797;28;20035;-80
2022/10/25 09:51:27;;;;;;;18.25;9.93;;;487.10;2380.80;;;;;;4965357;28;20110;-81
2022/10/25 09:53:54;;;;;;;15.82;9.30;;;487.30;2380.80;;;;;;5034474;28;20048;-76
2022/10/25 09:56:20;;;;;;;13.20;8.55;;;512.10;2380.80;;;;;;5005797;28;20498;-82
2022/10/25 09:58:46;;;;;;;13.32;8.88;;;512.20;2380.80;;;;;;5004155;28;20047;-77
2022/10/25 10:01:14;;;;;;;12.90;8.38;;;512.60;2380.80;;;;;;5008393;28;20029;-79
2022/10/25 10:03:40;;;;;;;16.67;10.50;;;512.70;2380.80;;;;;;5034537;28;20038;-78
2022/10/25 10:06:24;;;;;;;14.20;8.50;;;512.80;2380.80;;;;;;5014547;28;20027;-78
2022/10/25 10:09:04;;;;;;;13.35;8.25;;;537.70;2406.40;;;;;;5030906;28;20034;-80
2022/10/25 10:11:32;;;;;;;14.77;8.55;;;537.80;2406.40;;;;;;5033014;28;20055;-79
2022/10/25 10:14:24;;;;;;;18.83;7.95;;;537.80;2406.40;;;;;;5023859;28;20057;-77
2022/10/25 10:16:53;;;;;;;12.07;7.10;;;537.70;2406.40;;;;;;5024242;28;20495;-80
2022/10/25 10:19:21;;;;;;;12.52;6.68;;;512.90;2380.80;;;;;;5033043;28;20044;-81
2022/10/25 10:21:56;;;;;;;9.68;6.65;;;512.90;2380.80;;;;;;5008938;28;20042;-76
2022/10/25 10:24:25;;;;;;;12.95;7.18;;;537.60;2406.40;;;;;;4998356;28;20113;-82
2022/10/25 10:26:59;;;;;;;11.25;6.60;;;512.90;2380.80;;;;;;5004252;28;20076;-76
2022/10/25 10:29:28;;;;;;;9.73;6.30;;;512.90;2380.80;;;;;;4995215;28;20041;-81
2022/10/25 10:31:58;;;;;;;16.75;7.57;;;512.80;2380.80;;;;;;4995382;28;20022;-77
2022/10/25 10:34:41;;;;;;;11.70;7.05;;;512.60;2380.80;;;;;;4992922;28;20042;-77
2022/10/25 10:37:16;;;;;;;15.27;7.43;;;512.50;2380.80;;;;;;5046206;28;20042;-76
2022/10/25 10:39:55;;;;;;;11.45;6.68;;;512.40;2380.80;;;;;;5033984;28;20087;-77
2022/10/25 10:42:27;;;;;;;13.68;6.47;;;512.20;2380.80;;;;;;5033884;28;20065;-82
2022/10/25 10:45:17;;;;;;;15.40;6.15;;;512.20;2380.80;;;;;;5032254;28;20080;-76
2022/10/25 10:47:48;;;;;;;11.13;6.45;;;512.00;2380.80;;;;;;5033724;28;20029;-78
2022/10/25 10:50:24;;;;;;;11.35;6.20;;;487.30;2380.80;;;;;;5031527;28;20645;-75
2022/10/25 10:52:53;;;;;;;9.43;6.43;;;487.30;2380.80;;;;;;5024506;28;20045;-80
2022/10/25 10:55:42;;;;;;;9.95;6.38;;;487.30;2380.80;;;;;;5027639;28;20044;-77
2022/10/25 10:58:25;;;;;;;10.70;5.80;;;487.30;2380.80;;;;;;5021457;28;20493;-77
2022/10/25 11:00:59;;;;;;;12.85;7.07;;;512.20;2380.80;;;;;;5000571;28;20030;-82
2022/10/25 11:03:37;;;;;;;10.38;6.95;;;512.50;2380.80;;;;;;4998741;28;20034;-77
2022/10/25 11:06:27;;;;;;;11.82;7.00;;;512.70;2380.80;;;;;;4995885;28;20085;-76
2022/10/25 11:09:11;;;;;;;9.98;6.10;;;537.60;2406.40;;;;;;5002725;28;20029;-78
2022/10/25 11:11:38;;;;;;;10.02;5.90;;;512.90;2380.80;;;;;;5031933;28;20029;-82
2022/10/25 11:14:14;;;;;;;9.73;6.53;;;537.60;2406.40;;;;;;5017848;28;20116;-78
2022/10/25 11:17:07;;;;;;;11.47;6.13;;;538.00;2406.40;;;;;;5031806;28;20458;-77
2022/10/25 11:19:33;;;;;;;8.52;5.30;;;563.20;2432.00;;;;;;5009455;28;20269;-79
2022/10/25 11:22:37;;;;;;;12.35;5.20;;;563.20;2432.00;;;;;;5032930;28;20038;-81
2022/10/25 11:25:15;;;;;;;11.45;5.90;;;538.50;2406.40;;;;;;5026581;28;20048;-83
2022/10/25 11:27:59;;;;;;;9.48;5.68;;;538.30;2406.40;;;;;;5031405;28;20060;-79
2022/10/25 11:30:32;;;;;;;8.18;4.85;;;538.20;2406.40;;;;;;5031691;28;20470;-81
2022/10/25 11:33:13;;;;;;;7.55;5.25;;;538.00;2406.40;;;;;;5019775;28;20113;-76
2022/10/25 11:35:47;;;;;;;9.15;5.15;;;537.80;2406.40;;;;;;4995223;28;20124;-78
2022/10/25 11:38:16;;;;;;;9.20;5.20;;;537.70;2406.40;;;;;;4991364;28;20129;-77
2022/10/25 11:40:55;;;;;;;6.97;4.22;;;537.70;2406.40;;;;;;5002473;28;20434;-82
2022/10/25 11:43:30;;;;;;;9.27;4.97;;;537.60;2406.40;;;;;;5012391;28;20050;-78
2022/10/25 11:46:03;;;;;;;6.93;4.38;;;537.60;2406.40;;;;;;5013566;28;20046;-78
2022/10/25 11:48:37;;;;;;;8.30;3.70;;;512.90;2380.80;;;;;;5004144;28;20034;-77
2022/10/25 11:51:56;;;;;;;5.80;3.20;;;512.80;2380.80;;;;;;4994374;28;20526;-83
2022/10/25 11:54:47;;;;;;;5.70;3.17;;;512.70;2380.80;;;;;;4992622;28;20097;-77
2022/10/25 11:57:39;;;;;;;6.35;3.90;;;512.50;2380.80;;;;;;4992717;28;20137;-79
2022/10/25 12:00:13;;;;;;;7.60;4.05;;;512.40;2380.80;;;;;;4993060;28;20034;-79
2022/10/25 12:02:55;;;;;;;9.00;4.03;;;512.30;2380.80;;;;;;4982521;28;20091;-78
2022/10/25 12:05:42;;;;;;;7.88;3.55;;;512.30;2380.80;;;;;;4990981;28;20030;-81
2022/10/25 12:08:29;;;;;;;7.45;3.97;;;512.30;2380.80;;;;;;5001613;28;20034;-79
2022/10/25 12:11:03;;;;;;;8.55;5.25;;;512.30;2380.80;;;;;;4996958;28;20033;-81
2022/10/25 12:13:46;;;;;;;10.05;4.80;;;512.30;2380.80;;;;;;5002698;28;20022;-80
2022/10/25 12:16:15;;;;;;;6.90;3.55;;;512.20;2380.80;;;;;;5002024;28;20069;-82
2022/10/25 12:18:47;;;;;;;8.48;3.00;;;512.20;2380.80;;;;;;5008362;28;20113;-81
2022/10/25 12:21:27;;;;;;;7.90;3.72;;;512.20;2380.80;;;;;;5002915;28;20626;-82